createdAt,value
2022-12-08T00:01:34.395Z,45.19
2022-12-08T00:04:03.268Z,45.02
2022-12-08T00:06:49.005Z,45.84
2022-12-08T00:09:36.369Z,45.99
2022-12-08T00:12:11.944Z,46.33
2022-12-08T00:14:42.893Z,45.87
2022-12-08T00:17:13.132Z,46.26
2022-12-08T00:19:41.536Z,45.96
2022-12-08T00:22:10.679Z,45.41
2022-12-08T00:24:40.090Z,45.14
2022-12-08T00:27:10.875Z,45.15
2022-12-08T00:29:39.145Z,45.15
2022-12-08T00:32:07.364Z,45.80
2022-12-08T00:34:35.322Z,45.32
2022-12-08T00:37:02.842Z,45.49
2022-12-08T00:39:30.472Z,45.41
2022-12-08T00:42:13.072Z,45.00
2022-12-08T00:44:45.765Z,45.07
2022-12-08T00:47:14.369Z,44.70
2022-12-08T00:49:42.590Z,44.58
2022-12-08T00:52:10.214Z,44.96
2022-12-08T00:54:37.821Z,45.07
2022-12-08T00:57:05.489Z,44.78
2022-12-08T00:59:33.385Z,44.56
2022-12-08T01:02:00.985Z,45.17
2022-12-08T01:04:29.397Z,45.08
2022-12-08T01:06:57.331Z,46.01
2022-12-08T01:09:24.906Z,45.93
2022-12-08T01:11:52.449Z,45.34
2022-12-08T01:14:21.008Z,45.28
2022-12-08T01:16:49.478Z,45.88
2022-12-08T01:19:18.247Z,45.80
2022-12-08T01:21:46.249Z,45.79
2022-12-08T01:24:21.033Z,46.21
2022-12-08T01:26:50.077Z,46.36
2022-12-08T01:29:18.269Z,46.32
2022-12-08T01:31:45.836Z,46.03
2022-12-08T01:34:13.733Z,46.30
2022-12-08T01:36:42.469Z,45.89
2022-12-08T01:39:16.103Z,45.53
2022-12-08T01:41:44.679Z,45.73
2022-12-08T01:44:12.238Z,46.68
2022-12-08T01:46:44.515Z,46.66
2022-12-08T01:49:23.074Z,46.10
2022-12-08T01:51:54.218Z,46.80
2022-12-08T01:54:25.360Z,46.90
2022-12-08T01:57:28.804Z,47.31
2022-12-08T02:00:08.474Z,46.92
2022-12-08T02:02:58.613Z,47.25
2022-12-08T02:05:32.576Z,47.37
2022-12-08T02:08:04.712Z,47.05
2022-12-08T02:10:35.967Z,47.62
2022-12-08T02:13:05.168Z,46.76
2022-12-08T02:16:04.241Z,47.07
2022-12-08T02:18:40.613Z,45.95
2022-12-08T02:21:11.642Z,46.79
2022-12-08T02:23:52.049Z,47.61
2022-12-08T02:26:46.195Z,47.09
2022-12-08T02:29:38.052Z,46.62
2022-12-08T02:32:23.314Z,47.50
2022-12-08T02:35:26.966Z,47.06
2022-12-08T02:38:09.031Z,46.16
2022-12-08T02:41:00.457Z,45.99
2022-12-08T02:43:51.425Z,46.49
2022-12-08T02:46:25.212Z,46.53
2022-12-08T02:48:52.856Z,48.43
2022-12-08T02:51:20.477Z,46.35
2022-12-08T02:53:49.120Z,46.60
2022-12-08T02:56:49.180Z,49.89
2022-12-08T02:59:30.675Z,52.29
2022-12-08T03:02:09.032Z,50.84
2022-12-08T03:05:01.597Z,48.61
2022-12-08T03:08:08.178Z,48.42
2022-12-08T03:10:47.373Z,47.67
2022-12-08T03:13:20.984Z,48.11
2022-12-08T03:15:51.349Z,47.44
2022-12-08T03:18:26.887Z,48.59
2022-12-08T03:20:54.745Z,47.60
2022-12-08T03:23:23.133Z,46.50
2022-12-08T03:26:18.007Z,48.37
2022-12-08T03:28:46.518Z,47.06
2022-12-08T03:31:16.425Z,47.73
2022-12-08T03:33:48.551Z,47.18
2022-12-08T03:36:16.458Z,51.92
2022-12-08T03:38:46.366Z,54.74
2022-12-08T03:41:19.550Z,54.85
2022-12-08T03:43:52.849Z,50.50
2022-12-08T03:48:52.278Z,47.94
2022-12-08T03:51:20.443Z,47.77
2022-12-08T03:53:48.030Z,46.81
2022-12-08T03:56:28.535Z,46.67
2022-12-08T03:58:56.818Z,46.04
2022-12-08T04:01:24.690Z,45.86
2022-12-08T04:03:52.607Z,44.96
2022-12-08T04:06:20.690Z,44.97
2022-12-08T04:08:48.886Z,44.76
2022-12-08T04:11:16.502Z,44.45
2022-12-08T04:13:44.301Z,46.51
2022-12-08T04:16:23.446Z,46.81
2022-12-08T04:18:51.474Z,50.74
2022-12-08T04:21:18.981Z,48.90
2022-12-08T04:23:47.053Z,47.28
2022-12-08T04:26:15.785Z,45.04
2022-12-08T04:28:43.364Z,46.12
2022-12-08T04:31:10.966Z,48.53
2022-12-08T04:33:38.578Z,50.70
2022-12-08T04:36:07.120Z,47.41
2022-12-08T04:38:35.266Z,45.57
2022-12-08T04:41:02.950Z,44.87
2022-12-08T04:43:30.494Z,43.23
2022-12-08T04:45:58.067Z,42.65
2022-12-08T04:48:25.830Z,42.68
2022-12-08T04:50:53.423Z,41.94
2022-12-08T04:53:21.654Z,40.19
2022-12-08T04:55:49.977Z,39.58
2022-12-08T04:58:19.837Z,40.74
2022-12-08T05:00:47.945Z,45.12
2022-12-08T05:03:16.249Z,38.88
2022-12-08T05:05:44.618Z,37.16
2022-12-08T05:08:12.161Z,37.30
2022-12-08T05:10:40.670Z,37.25
2022-12-08T05:13:08.305Z,36.75
2022-12-08T05:15:35.798Z,36.13
2022-12-08T05:18:05.785Z,37.07
2022-12-08T05:20:34.112Z,36.09
2022-12-08T05:23:01.795Z,36.35
2022-12-08T05:25:29.582Z,36.80
2022-12-08T05:28:17.624Z,37.23
2022-12-08T05:30:44.669Z,38.26
2022-12-08T05:33:12.185Z,37.30
2022-12-08T05:35:40.030Z,37.40
2022-12-08T05:38:07.723Z,36.87
2022-12-08T05:40:35.395Z,36.59
2022-12-08T05:43:02.905Z,36.49
2022-12-08T05:45:30.485Z,37.32
2022-12-08T05:47:58.217Z,36.99
2022-12-08T05:50:25.747Z,36.98
2022-12-08T05:52:55.804Z,37.08
2022-12-08T05:55:23.342Z,36.69
2022-12-08T05:57:50.912Z,36.81
2022-12-08T06:00:18.872Z,38.11
2022-12-08T06:02:46.535Z,38.63
2022-12-08T06:05:14.207Z,38.92
2022-12-08T06:07:41.922Z,39.37
2022-12-08T06:10:09.991Z,41.45
2022-12-08T06:12:37.523Z,41.28
2022-12-08T06:15:05.289Z,39.83
2022-12-08T06:17:32.824Z,40.21
2022-12-08T06:20:00.325Z,37.21
2022-12-08T06:22:28.856Z,37.17
2022-12-08T06:24:56.490Z,36.37
2022-12-08T06:27:24.402Z,36.61
2022-12-08T06:29:52.007Z,33.64
2022-12-08T06:32:24.350Z,33.94
2022-12-08T06:34:54.881Z,33.65
2022-12-08T06:37:22.365Z,32.79
2022-12-08T06:39:49.995Z,31.22
2022-12-08T06:42:35.778Z,30.52
2022-12-08T06:45:03.413Z,30.10
2022-12-08T06:47:31.417Z,28.97
2022-12-08T06:49:59.111Z,29.29
2022-12-08T06:52:26.734Z,30.28
2022-12-08T06:54:54.284Z,30.28
2022-12-08T06:57:21.887Z,30.08
2022-12-08T06:59:49.389Z,30.26
2022-12-08T07:02:17.555Z,30.44
2022-12-08T07:04:45.138Z,30.89
2022-12-08T07:07:12.706Z,30.67
2022-12-08T07:09:40.253Z,30.14
2022-12-08T07:12:08.121Z,30.24
2022-12-08T07:14:35.823Z,30.98
2022-12-08T07:17:03.491Z,30.79
2022-12-08T07:19:31.146Z,30.32
2022-12-08T07:21:58.680Z,30.14
2022-12-08T07:24:26.242Z,31.03
2022-12-08T07:26:53.908Z,30.53
2022-12-08T07:29:26.060Z,29.94
2022-12-08T07:31:54.012Z,29.70
2022-12-08T07:34:21.600Z,29.98
2022-12-08T07:36:49.257Z,30.05
2022-12-08T07:39:16.911Z,31.68
2022-12-08T07:41:44.486Z,31.86
2022-12-08T07:44:12.187Z,30.42
2022-12-08T07:46:39.741Z,30.55
2022-12-08T07:49:07.290Z,29.75
2022-12-08T07:51:34.849Z,37.67
2022-12-08T07:54:02.502Z,34.47
2022-12-08T07:56:30.076Z,32.17
2022-12-08T07:58:57.665Z,31.41
2022-12-08T08:01:27.825Z,31.74
2022-12-08T08:03:57.500Z,31.28
2022-12-08T08:06:25.450Z,31.97
2022-12-08T08:08:52.967Z,31.52
2022-12-08T08:11:21.865Z,32.48
2022-12-08T08:13:50.468Z,32.53
2022-12-08T08:16:18.807Z,32.89
2022-12-08T08:18:51.092Z,33.32
2022-12-08T08:24:08.070Z,32.77
2022-12-08T08:26:36.206Z,33.05
2022-12-08T08:29:03.865Z,33.61
2022-12-08T08:31:31.430Z,33.70
2022-12-08T08:34:00.963Z,35.08
2022-12-08T08:36:28.439Z,36.18
2022-12-08T08:38:55.983Z,35.34
2022-12-08T08:41:23.492Z,35.29
2022-12-08T08:43:51.061Z,36.35
2022-12-08T08:46:18.745Z,35.09
2022-12-08T08:48:46.432Z,35.04
2022-12-08T08:51:14.889Z,35.24
2022-12-08T08:53:43.571Z,35.50
2022-12-08T08:56:13.044Z,37.50
2022-12-08T08:58:41.000Z,38.01
2022-12-08T09:01:08.939Z,41.89
2022-12-08T09:03:36.481Z,38.89
2022-12-08T09:06:04.106Z,43.86
2022-12-08T09:08:31.778Z,40.39
2022-12-08T09:10:59.332Z,38.44
2022-12-08T09:13:27.054Z,42.73
2022-12-08T09:15:54.768Z,42.20
2022-12-08T09:18:22.435Z,41.40
2022-12-08T09:20:50.057Z,40.79
2022-12-08T09:23:17.682Z,39.88
2022-12-08T09:25:46.041Z,39.35
2022-12-08T09:28:14.461Z,38.28
2022-12-08T09:30:42.428Z,38.62
2022-12-08T09:33:10.149Z,38.61
2022-12-08T09:35:38.004Z,38.19
2022-12-08T09:38:06.252Z,38.96
2022-12-08T09:40:40.523Z,39.83
2022-12-08T09:43:29.263Z,52.68
2022-12-08T09:45:58.326Z,50.73
2022-12-08T09:48:35.433Z,56.07
2022-12-08T09:51:03.856Z,59.52
2022-12-08T09:53:51.278Z,61.16
2022-12-08T09:56:19.165Z,60.73
2022-12-08T09:58:57.950Z,61.20
2022-12-08T10:01:30.057Z,57.39
2022-12-08T10:03:58.652Z,58.61
2022-12-08T10:06:34.255Z,57.23
2022-12-08T10:09:12.593Z,61.01
2022-12-08T10:11:59.327Z,62.60
2022-12-08T10:14:55.994Z,60.52
2022-12-08T10:17:31.149Z,59.95
2022-12-08T10:20:07.141Z,56.64
2022-12-08T10:22:39.815Z,55.50
2022-12-08T10:25:26.173Z,53.17
2022-12-08T10:27:59.109Z,52.28
2022-12-08T10:30:26.878Z,48.35
2022-12-08T10:32:55.393Z,49.41
2022-12-08T10:35:25.578Z,49.69
2022-12-08T10:37:58.400Z,48.33
2022-12-08T10:40:40.572Z,47.24
2022-12-08T10:43:25.265Z,50.85
2022-12-08T10:45:53.104Z,51.97
2022-12-08T10:48:28.442Z,51.32
2022-12-08T10:50:58.413Z,50.39
2022-12-08T10:53:29.054Z,49.67
2022-12-08T10:56:03.003Z,56.72
2022-12-08T10:58:40.944Z,54.70
2022-12-08T11:01:20.564Z,53.46
2022-12-08T11:03:55.220Z,50.98
2022-12-08T11:06:31.359Z,50.65
2022-12-08T11:09:02.103Z,50.97
2022-12-08T11:11:45.775Z,48.41
2022-12-08T11:14:24.617Z,48.81
2022-12-08T11:16:55.083Z,49.36
2022-12-08T11:19:29.991Z,48.70
2022-12-08T11:21:57.981Z,48.10
2022-12-08T11:24:31.181Z,49.42
2022-12-08T11:27:04.164Z,49.93
2022-12-08T11:29:34.315Z,47.93
2022-12-08T11:32:12.104Z,51.48
2022-12-08T11:34:44.543Z,50.76
2022-12-08T11:37:29.920Z,55.81
2022-12-08T11:40:08.003Z,56.10
2022-12-08T11:42:46.956Z,58.24
2022-12-08T11:45:21.309Z,64.63
2022-12-08T11:47:59.323Z,67.34
2022-12-08T11:50:32.090Z,68.53
2022-12-08T11:53:02.128Z,68.96
2022-12-08T11:55:39.536Z,69.79
2022-12-08T11:58:22.264Z,72.22
2022-12-08T12:00:50.718Z,71.63
2022-12-08T12:03:41.221Z,74.21
2022-12-08T12:09:31.280Z,71.42
2022-12-08T12:12:14.165Z,73.27
2022-12-08T12:14:47.897Z,73.32
2022-12-08T12:17:56.902Z,69.04
2022-12-08T12:20:35.653Z,66.32
2022-12-08T12:23:17.813Z,69.67
2022-12-08T12:26:00.041Z,69.27
2022-12-08T12:28:42.286Z,70.57
2022-12-08T12:31:15.689Z,69.94
2022-12-08T12:33:47.755Z,69.53
2022-12-08T12:36:16.826Z,67.18
2022-12-08T12:39:03.895Z,70.56
2022-12-08T12:41:59.633Z,66.97
2022-12-08T12:44:31.054Z,64.68
2022-12-08T12:47:11.874Z,65.67
2022-12-08T12:49:50.211Z,65.22
2022-12-08T12:52:21.213Z,63.60
2022-12-08T12:54:53.185Z,62.49
2022-12-08T12:57:20.698Z,62.19
2022-12-08T12:59:55.822Z,60.72
2022-12-08T13:02:29.486Z,60.14
2022-12-08T13:05:16.294Z,56.35
2022-12-08T13:07:58.150Z,56.84
2022-12-08T13:10:40.649Z,58.75
2022-12-08T13:13:19.201Z,56.93
2022-12-08T13:15:46.763Z,57.48
2022-12-08T13:18:27.008Z,58.30
2022-12-08T13:21:09.884Z,57.85
2022-12-08T13:23:37.355Z,56.63
2022-12-08T13:26:28.008Z,56.78
2022-12-08T13:29:01.906Z,57.11
2022-12-08T13:31:45.091Z,54.54
2022-12-08T13:34:42.038Z,54.60
2022-12-08T13:37:12.603Z,54.19
2022-12-08T13:39:40.249Z,55.00
2022-12-08T13:42:30.907Z,54.45
2022-12-08T13:49:41.940Z,55.20
2022-12-08T13:57:30.118Z,53.47
2022-12-08T14:00:03.015Z,53.75
2022-12-08T14:02:48.199Z,54.04
2022-12-08T14:05:35.269Z,54.01
2022-12-08T14:11:35.425Z,55.14
2022-12-08T14:14:06.354Z,53.47
2022-12-08T14:16:39.573Z,54.15
2022-12-08T14:19:20.529Z,57.04
2022-12-08T14:21:56.432Z,60.50
2022-12-08T14:24:26.758Z,60.72
2022-12-08T14:26:58.390Z,60.35
2022-12-08T14:29:39.921Z,58.76
2022-12-08T14:33:10.077Z,54.82
2022-12-08T14:35:41.248Z,57.03
2022-12-08T14:38:17.558Z,61.05
2022-12-08T14:41:00.046Z,60.76
2022-12-08T14:43:30.595Z,61.14
2022-12-08T14:46:02.764Z,65.55
2022-12-08T14:48:42.939Z,63.69
2022-12-08T14:51:32.819Z,59.98
2022-12-08T14:54:08.818Z,58.15
2022-12-08T14:56:56.891Z,58.79
2022-12-08T14:59:37.222Z,58.54
2022-12-08T15:02:27.309Z,54.71
2022-12-08T15:05:16.165Z,55.66
2022-12-08T15:07:54.494Z,55.50
2022-12-08T15:10:26.997Z,54.46
2022-12-08T15:13:20.462Z,53.53
2022-12-08T15:15:58.174Z,55.30
2022-12-08T15:18:38.949Z,55.58
2022-12-08T15:21:15.717Z,54.27
2022-12-08T15:23:46.427Z,55.01
2022-12-08T15:26:29.018Z,54.59
2022-12-08T15:28:56.831Z,53.82
2022-12-08T15:31:24.447Z,52.83
2022-12-08T15:33:51.969Z,52.63
2022-12-08T15:36:19.433Z,52.49
2022-12-08T15:38:46.912Z,52.77
2022-12-08T15:41:15.428Z,52.53
2022-12-08T15:43:43.367Z,49.90
2022-12-08T15:46:12.479Z,51.29
2022-12-08T15:48:40.176Z,52.48
2022-12-08T15:51:07.668Z,51.22
2022-12-08T15:53:35.169Z,49.59
2022-12-08T15:58:56.984Z,51.42
2022-12-08T16:01:26.095Z,50.29
2022-12-08T16:09:44.193Z,50.89
2022-12-08T16:15:53.040Z,51.86
2022-12-08T16:18:27.467Z,52.08
2022-12-08T16:21:10.319Z,51.54
2022-12-08T16:23:44.971Z,51.26
2022-12-08T16:27:28.586Z,50.24
2022-12-08T16:29:17.927Z,49.11
2022-12-08T16:31:45.521Z,50.02
2022-12-08T16:34:15.118Z,51.12
2022-12-08T16:36:42.829Z,50.99
2022-12-08T16:39:17.403Z,51.28
2022-12-08T16:42:03.529Z,50.36
2022-12-08T16:44:31.012Z,51.51
2022-12-08T16:46:58.668Z,50.14
2022-12-08T16:49:26.257Z,50.31
2022-12-08T16:51:54.085Z,49.83
2022-12-08T16:54:21.573Z,48.68
2022-12-08T16:56:49.324Z,50.12
2022-12-08T16:59:16.872Z,50.29
2022-12-08T17:01:44.559Z,50.53
2022-12-08T17:04:30.897Z,49.09
2022-12-08T17:07:00.160Z,50.92
2022-12-08T17:09:28.850Z,50.14
2022-12-08T17:12:01.872Z,49.91
2022-12-08T17:14:35.803Z,51.73
2022-12-08T17:17:03.559Z,51.65
2022-12-08T17:19:31.323Z,51.74
2022-12-08T17:21:59.250Z,49.97
2022-12-08T17:24:29.370Z,50.20
2022-12-08T17:27:04.519Z,49.94
2022-12-08T17:29:33.471Z,50.84
2022-12-08T17:32:01.619Z,51.67
2022-12-08T17:34:29.367Z,51.02
2022-12-08T17:36:56.914Z,50.70
2022-12-08T17:39:25.579Z,50.90
2022-12-08T17:41:52.994Z,50.13
2022-12-08T17:44:21.175Z,50.64
2022-12-08T17:46:53.465Z,50.48
2022-12-08T17:49:26.826Z,51.67
2022-12-08T17:51:56.989Z,51.22
2022-12-08T17:54:25.217Z,49.66
2022-12-08T17:56:53.255Z,50.34
2022-12-08T17:59:21.106Z,51.04
2022-12-08T18:01:48.783Z,50.71
2022-12-08T18:04:16.302Z,49.59
2022-12-08T18:06:43.868Z,50.32
2022-12-08T18:09:11.630Z,49.88
2022-12-08T18:11:39.465Z,49.41
2022-12-08T18:14:10.602Z,49.55
2022-12-08T18:16:40.950Z,49.28
2022-12-08T18:19:08.960Z,49.33
2022-12-08T18:21:37.485Z,48.38
2022-12-08T18:24:05.558Z,47.44
2022-12-08T18:26:33.577Z,48.14
2022-12-08T18:29:01.781Z,48.07
2022-12-08T18:31:29.311Z,47.26
2022-12-08T18:33:56.900Z,47.03
2022-12-08T18:36:26.053Z,48.13
2022-12-08T18:38:54.460Z,47.41
2022-12-08T18:41:25.971Z,48.87
2022-12-08T18:43:54.774Z,47.72
2022-12-08T18:46:22.886Z,46.66
2022-12-08T18:48:51.906Z,46.71
2022-12-08T18:51:22.393Z,46.64
2022-12-08T18:53:50.378Z,46.27
2022-12-08T18:56:29.954Z,47.54
2022-12-08T18:59:03.295Z,46.65
2022-12-08T19:01:36.331Z,47.47
2022-12-08T19:06:54.665Z,47.02
2022-12-08T19:09:23.053Z,46.09
2022-12-08T19:11:50.742Z,45.95
2022-12-08T19:14:22.592Z,45.92
2022-12-08T19:16:53.401Z,45.77
2022-12-08T19:19:21.767Z,45.99
2022-12-08T19:21:49.631Z,45.68
2022-12-08T19:24:17.166Z,48.14
2022-12-08T19:26:44.749Z,47.77
2022-12-08T19:29:12.543Z,46.29
2022-12-08T19:31:40.518Z,46.31
2022-12-08T19:34:09.832Z,46.75
2022-12-08T19:36:42.574Z,45.54
2022-12-08T19:39:43.052Z,46.99
2022-12-08T19:42:34.382Z,45.41
2022-12-08T19:45:06.089Z,45.31
2022-12-08T19:47:33.855Z,45.80
2022-12-08T19:50:20.653Z,45.38
2022-12-08T19:52:48.258Z,45.62
2022-12-08T19:55:16.431Z,45.61
2022-12-08T19:57:43.911Z,45.61
2022-12-08T20:00:13.055Z,46.01
2022-12-08T20:02:40.736Z,46.69
2022-12-08T20:05:09.618Z,46.58
2022-12-08T20:07:37.639Z,46.47
2022-12-08T20:10:10.070Z,46.71
2022-12-08T20:12:37.623Z,45.97
2022-12-08T20:15:13.069Z,46.21
2022-12-08T20:17:41.589Z,46.50
2022-12-08T20:20:10.629Z,45.63
2022-12-08T20:22:38.412Z,46.69
2022-12-08T20:25:06.374Z,46.92
2022-12-08T20:27:34.003Z,46.14
2022-12-08T20:30:01.549Z,44.66
2022-12-08T20:32:31.622Z,45.89
2022-12-08T20:34:59.251Z,45.30
2022-12-08T20:37:26.728Z,45.99
2022-12-08T20:39:54.559Z,46.48
2022-12-08T20:42:24.373Z,47.14
2022-12-08T20:44:52.134Z,46.19
2022-12-08T20:47:19.704Z,46.22
2022-12-08T20:49:48.032Z,47.24
2022-12-08T20:52:15.547Z,46.98
2022-12-08T20:54:43.104Z,45.61
2022-12-08T20:57:10.779Z,46.50
2022-12-08T20:59:38.371Z,47.37
2022-12-08T21:02:05.995Z,46.62
2022-12-08T21:04:34.053Z,46.14
2022-12-08T21:07:01.896Z,46.25
2022-12-08T21:09:29.781Z,46.28
2022-12-08T21:11:57.529Z,46.36
2022-12-08T21:14:24.990Z,46.13
2022-12-08T21:16:54.818Z,45.04
2022-12-08T21:19:23.766Z,45.73
2022-12-08T21:21:51.623Z,45.51
2022-12-08T21:24:19.720Z,46.16
2022-12-08T21:26:47.429Z,45.15
2022-12-08T21:29:15.217Z,46.52
2022-12-08T21:31:42.767Z,45.77
2022-12-08T21:34:11.833Z,46.40
2022-12-08T21:36:39.463Z,46.17
2022-12-08T21:39:12.092Z,45.57
2022-12-08T21:41:58.415Z,45.58
2022-12-08T21:44:26.485Z,45.66
2022-12-08T21:46:54.237Z,45.10
2022-12-08T21:49:22.024Z,45.16
2022-12-08T21:51:49.750Z,44.66
2022-12-08T21:54:19.268Z,44.70
2022-12-08T21:56:48.653Z,45.10
2022-12-08T21:59:17.712Z,45.78
2022-12-08T22:01:45.588Z,45.64
2022-12-08T22:04:17.538Z,46.59
2022-12-08T22:06:45.323Z,45.48
2022-12-08T22:09:13.803Z,46.08
2022-12-08T22:11:43.277Z,45.01
2022-12-08T22:14:14.856Z,45.19
2022-12-08T22:16:44.465Z,45.32
2022-12-08T22:19:12.789Z,45.84
2022-12-08T22:21:40.461Z,45.79
2022-12-08T22:24:09.395Z,45.45
2022-12-08T22:26:37.113Z,45.58
2022-12-08T22:29:04.615Z,45.62
2022-12-08T22:31:32.227Z,45.71
2022-12-08T22:34:00.556Z,45.22
2022-12-08T22:36:28.498Z,44.57
2022-12-08T22:38:56.474Z,45.11
2022-12-08T22:41:24.464Z,44.80
2022-12-08T22:43:52.311Z,45.26
2022-12-08T22:46:25.660Z,44.57
2022-12-08T22:48:54.686Z,46.33
2022-12-08T22:51:22.469Z,45.40
2022-12-08T22:53:50.899Z,44.96
2022-12-08T22:56:19.692Z,44.58
2022-12-08T22:58:47.948Z,44.79
2022-12-08T23:01:27.326Z,44.99
2022-12-08T23:03:55.164Z,45.38
2022-12-08T23:06:23.527Z,45.41
2022-12-08T23:08:51.552Z,45.56
2022-12-08T23:11:20.617Z,44.77
2022-12-08T23:13:49.068Z,44.42
2022-12-08T23:16:16.737Z,44.06
2022-12-08T23:18:46.351Z,44.50
2022-12-08T23:21:17.232Z,45.24
2022-12-08T23:23:45.119Z,44.28
2022-12-08T23:26:25.745Z,43.99
2022-12-08T23:28:54.153Z,43.98
2022-12-08T23:31:22.318Z,44.01
2022-12-08T23:33:50.018Z,42.96
2022-12-08T23:36:19.388Z,43.35
2022-12-08T23:38:47.603Z,43.79
2022-12-08T23:41:17.283Z,44.02
2022-12-08T23:43:49.928Z,44.02
2022-12-08T23:46:19.805Z,44.53
2022-12-08T23:48:47.481Z,44.31
2022-12-08T23:51:15.644Z,44.62
2022-12-08T23:53:44.473Z,44.26
2022-12-08T23:56:15.045Z,45.51
2022-12-08T23:58:43.657Z,45.91
